createdAt,value
2019-03-06T00:02:19.430Z,7.48
2019-03-06T00:04:49.443Z,7.67
2019-03-06T00:07:19.939Z,7.55
2019-03-06T00:09:50.243Z,7.53
2019-03-06T00:12:20.835Z,7.06
2019-03-06T00:14:50.995Z,7.44
2019-03-06T00:17:20.939Z,8.09
2019-03-06T00:19:51.504Z,8.31
2019-03-06T00:22:21.436Z,7.59
2019-03-06T00:24:51.507Z,8.40
2019-03-06T00:27:21.460Z,8.30
2019-03-06T00:29:51.382Z,7.96
2019-03-06T00:32:21.302Z,7.57
2019-03-06T00:34:52.195Z,8.28
2019-03-06T00:37:22.442Z,8.14
2019-03-06T00:40:03.946Z,7.23
2019-03-06T00:42:36.721Z,8.25
2019-03-06T00:45:08.958Z,8.24
2019-03-06T00:47:39.213Z,8.48
2019-03-06T00:50:09.205Z,8.02
2019-03-06T00:52:39.499Z,7.56
2019-03-06T00:55:09.602Z,8.28
2019-03-06T00:57:39.531Z,8.41
2019-03-06T01:00:09.979Z,7.98
2019-03-06T01:02:39.894Z,8.51
2019-03-06T01:05:10.296Z,8.59
2019-03-06T01:07:40.554Z,8.55
2019-03-06T01:10:11.016Z,8.12
2019-03-06T01:12:41.531Z,8.36
2019-03-06T01:15:12.010Z,7.90
2019-03-06T01:17:42.024Z,8.38
2019-03-06T01:20:12.452Z,8.48
2019-03-06T01:22:42.520Z,8.44
2019-03-06T01:25:12.983Z,7.87
2019-03-06T01:27:42.999Z,7.73
2019-03-06T01:30:16.077Z,8.08
2019-03-06T01:32:47.754Z,8.17
2019-03-06T01:35:36.806Z,8.20
2019-03-06T01:38:13.803Z,8.11
2019-03-06T01:40:56.942Z,6.88
2019-03-06T01:43:31.143Z,7.54
2019-03-06T01:46:01.205Z,7.87
2019-03-06T01:48:31.384Z,7.96
2019-03-06T01:51:01.367Z,8.05
2019-03-06T01:53:31.268Z,8.16
2019-03-06T01:56:01.505Z,8.00
2019-03-06T01:58:31.445Z,7.18
2019-03-06T02:01:01.758Z,7.74
2019-03-06T02:03:31.691Z,7.58
2019-03-06T02:06:02.180Z,7.97
2019-03-06T02:08:32.654Z,7.88
2019-03-06T02:11:03.401Z,7.66
2019-03-06T02:13:33.557Z,6.82
2019-03-06T02:16:03.460Z,7.31
2019-03-06T02:18:33.528Z,7.45
2019-03-06T02:21:03.487Z,7.83
2019-03-06T02:23:33.355Z,7.77
2019-03-06T02:26:03.311Z,7.74
2019-03-06T02:28:33.538Z,7.95
2019-03-06T02:31:03.558Z,7.83
2019-03-06T02:33:33.590Z,7.77
2019-03-06T02:36:03.529Z,7.49
2019-03-06T02:38:33.458Z,7.71
2019-03-06T02:41:03.375Z,7.80
2019-03-06T02:43:33.721Z,7.78
2019-03-06T02:46:03.721Z,7.79
2019-03-06T02:48:33.619Z,6.91
2019-03-06T02:51:03.537Z,6.34
2019-03-06T02:53:33.458Z,6.56
2019-03-06T02:56:03.747Z,6.49
2019-03-06T02:58:50.191Z,7.05
2019-03-06T03:01:42.099Z,7.19
2019-03-06T03:04:22.638Z,7.44
2019-03-06T03:06:58.463Z,7.47
2019-03-06T03:09:28.760Z,7.59
2019-03-06T03:11:58.666Z,7.44
2019-03-06T03:14:28.576Z,7.10
2019-03-06T03:16:58.514Z,7.04
2019-03-06T03:19:28.479Z,7.10
2019-03-06T03:21:58.368Z,6.78
2019-03-06T03:24:28.390Z,7.45
2019-03-06T03:26:58.662Z,6.59
2019-03-06T03:29:28.603Z,7.37
2019-03-06T03:31:58.541Z,7.30
2019-03-06T03:34:29.064Z,7.32
2019-03-06T03:36:58.992Z,6.94
2019-03-06T03:39:29.144Z,7.48
2019-03-06T03:41:59.203Z,7.16
2019-03-06T03:44:29.427Z,7.54
2019-03-06T03:46:59.618Z,7.26
2019-03-06T03:49:29.537Z,6.96
2019-03-06T03:51:59.503Z,7.47
2019-03-06T03:54:29.790Z,7.49
2019-03-06T03:57:00.030Z,6.79
2019-03-06T03:59:30.615Z,7.25
2019-03-06T04:02:00.615Z,7.40
2019-03-06T04:04:30.787Z,7.50
2019-03-06T04:07:00.815Z,7.34
2019-03-06T04:09:31.021Z,7.47
2019-03-06T04:12:01.195Z,7.43
2019-03-06T04:14:31.419Z,6.99
2019-03-06T04:17:01.609Z,7.13
2019-03-06T04:19:31.534Z,7.05
2019-03-06T04:22:01.710Z,7.34
2019-03-06T04:24:32.693Z,7.18
2019-03-06T04:27:02.598Z,7.19
2019-03-06T04:29:32.622Z,6.79
2019-03-06T04:32:02.563Z,7.01
2019-03-06T04:34:32.475Z,6.35
2019-03-06T04:37:02.879Z,7.04
2019-03-06T04:39:32.841Z,6.63
2019-03-06T04:42:02.826Z,7.07
2019-03-06T04:44:32.959Z,7.35
2019-03-06T04:47:03.381Z,7.17
2019-03-06T04:49:33.340Z,7.14
2019-03-06T04:52:03.232Z,6.62
2019-03-06T04:54:33.101Z,7.13
2019-03-06T04:57:02.986Z,7.03
2019-03-06T04:59:32.940Z,7.16
2019-03-06T05:02:03.070Z,7.04
2019-03-06T05:04:33.344Z,7.12
2019-03-06T05:07:03.490Z,6.91
2019-03-06T05:09:33.382Z,7.04
2019-03-06T05:12:03.325Z,7.10
2019-03-06T05:14:33.465Z,7.00
2019-03-06T05:17:34.325Z,6.50
2019-03-06T05:20:04.882Z,6.95
2019-03-06T05:22:34.809Z,6.73
2019-03-06T05:25:05.173Z,6.93
2019-03-06T05:27:35.474Z,7.02
2019-03-06T05:30:06.035Z,7.15
2019-03-06T05:32:38.085Z,6.97
2019-03-06T05:35:19.723Z,6.99
2019-03-06T05:38:22.548Z,6.99
2019-03-06T05:40:52.524Z,6.97
2019-03-06T05:45:51.783Z,6.97
2019-03-06T05:48:21.685Z,7.22
2019-03-06T05:50:51.628Z,7.17
2019-03-06T05:53:21.525Z,7.22
2019-03-06T05:55:51.600Z,7.25
2019-03-06T05:58:21.898Z,7.23
2019-03-06T06:00:52.163Z,7.34
2019-03-06T06:03:22.099Z,7.31
2019-03-06T06:05:52.226Z,7.29
2019-03-06T06:08:23.487Z,7.39
2019-03-06T06:10:53.488Z,7.39
2019-03-06T06:13:23.464Z,7.37
2019-03-06T06:15:53.386Z,7.50
2019-03-06T06:18:24.874Z,7.73
2019-03-06T06:21:09.293Z,7.66
2019-03-06T06:23:42.519Z,7.57
2019-03-06T06:26:12.491Z,7.48
2019-03-06T06:28:42.490Z,7.55
2019-03-06T06:31:12.711Z,7.39
2019-03-06T06:33:43.080Z,7.66
2019-03-06T06:36:13.867Z,7.63
2019-03-06T06:38:43.790Z,7.56
2019-03-06T06:41:13.974Z,7.54
2019-03-06T06:43:44.353Z,7.68
2019-03-06T06:46:14.805Z,7.62
2019-03-06T06:48:45.141Z,7.76
2019-03-06T06:52:41.925Z,7.81
2019-03-06T06:55:54.969Z,7.87
2019-03-06T06:58:48.029Z,7.94
2019-03-06T07:02:22.364Z,8.13
2019-03-06T07:05:18.963Z,8.05
2019-03-06T07:08:04.190Z,8.04
2019-03-06T07:10:40.961Z,7.93
2019-03-06T07:13:29.821Z,8.07
2019-03-06T07:16:18.428Z,8.08
2019-03-06T07:19:22.277Z,8.33
2019-03-06T07:22:03.466Z,8.34
2019-03-06T07:24:45.752Z,8.40
2019-03-06T07:27:40.579Z,8.28
2019-03-06T07:30:19.914Z,8.37
2019-03-06T07:32:56.852Z,8.41
2019-03-06T07:36:14.899Z,8.52
2019-03-06T07:38:44.808Z,8.41
2019-03-06T07:41:31.800Z,8.46
2019-03-06T07:44:30.417Z,8.49
2019-03-06T07:47:18.503Z,8.64
2019-03-06T07:50:12.012Z,8.55
2019-03-06T07:52:59.213Z,8.63
2019-03-06T07:55:39.346Z,8.70
2019-03-06T07:59:01.952Z,8.75
2019-03-06T08:01:54.469Z,8.79
2019-03-06T08:04:25.160Z,8.66
2019-03-06T08:06:59.690Z,8.80
2019-03-06T08:09:30.321Z,9.01
2019-03-06T08:12:19.161Z,8.98
2019-03-06T08:15:08.287Z,9.07
2019-03-06T08:18:15.075Z,9.19
2019-03-06T08:21:22.003Z,9.16
2019-03-06T08:24:06.874Z,9.27
2019-03-06T08:26:37.016Z,9.12
2019-03-06T08:29:07.148Z,9.08
2019-03-06T08:31:40.326Z,9.37
2019-03-06T08:34:10.848Z,9.43
2019-03-06T08:36:41.223Z,9.57
2019-03-06T08:39:22.894Z,9.66
2019-03-06T08:41:52.762Z,9.65
2019-03-06T08:44:22.845Z,9.72
2019-03-06T08:47:05.815Z,9.96
2019-03-06T08:49:43.622Z,10.28
2019-03-06T08:52:22.166Z,10.36
2019-03-06T08:55:08.256Z,10.27
2019-03-06T08:57:44.988Z,10.41
2019-03-06T09:00:46.719Z,10.87
2019-03-06T09:03:34.532Z,10.89
2019-03-06T09:06:19.611Z,11.12
2019-03-06T09:09:02.239Z,11.00
2019-03-06T09:11:39.628Z,10.90
2019-03-06T09:14:24.124Z,11.02
2019-03-06T09:17:21.986Z,10.99
2019-03-06T09:20:09.328Z,11.00
2019-03-06T09:22:57.131Z,10.94
2019-03-06T09:25:39.844Z,11.04
2019-03-06T09:28:20.618Z,11.32
2019-03-06T09:30:57.551Z,11.29
2019-03-06T09:33:36.960Z,11.46
2019-03-06T09:36:23.256Z,11.43
2019-03-06T09:39:18.508Z,11.50
2019-03-06T09:42:06.797Z,11.55
2019-03-06T09:44:43.095Z,11.67
2019-03-06T09:47:22.359Z,11.62
2019-03-06T09:50:10.170Z,11.72
2019-03-06T09:53:08.159Z,11.75
2019-03-06T09:55:49.748Z,11.26
2019-03-06T09:58:50.711Z,11.84
2019-03-06T10:01:42.826Z,11.88
2019-03-06T10:04:40.915Z,11.61
2019-03-06T10:07:35.978Z,11.53
2019-03-06T10:10:21.034Z,11.51
2019-03-06T10:13:00.335Z,11.69
2019-03-06T10:15:36.874Z,12.10
2019-03-06T10:18:10.807Z,12.46
2019-03-06T10:20:40.946Z,12.47
2019-03-06T10:23:11.097Z,12.59
2019-03-06T10:25:41.352Z,12.75
2019-03-06T10:28:11.294Z,12.29
2019-03-06T10:30:41.711Z,12.80
2019-03-06T10:33:12.158Z,12.94
2019-03-06T10:35:43.004Z,12.55
2019-03-06T10:38:16.663Z,12.76
2019-03-06T10:40:46.732Z,12.09
2019-03-06T10:43:16.935Z,12.24
2019-03-06T10:45:50.374Z,13.07
2019-03-06T10:48:20.550Z,12.76
2019-03-06T10:50:50.818Z,13.00
2019-03-06T10:53:21.084Z,12.86
2019-03-06T10:55:51.287Z,12.89
2019-03-06T10:58:21.372Z,13.01
2019-03-06T11:00:58.177Z,13.05
2019-03-06T11:03:38.273Z,12.92
2019-03-06T11:06:10.993Z,12.79
2019-03-06T11:08:41.089Z,13.15
2019-03-06T11:11:11.601Z,13.29
2019-03-06T11:13:41.650Z,13.02
2019-03-06T11:16:13.292Z,13.27
2019-03-06T11:18:43.773Z,13.46
2019-03-06T11:21:14.004Z,13.82
2019-03-06T11:23:50.299Z,13.20
2019-03-06T11:26:20.436Z,13.61
2019-03-06T11:28:50.719Z,13.35
2019-03-06T11:31:21.033Z,13.81
2019-03-06T11:34:00.697Z,13.42
2019-03-06T11:36:32.469Z,13.64
2019-03-06T11:39:05.759Z,13.96
2019-03-06T11:41:38.660Z,13.87
2019-03-06T11:44:12.040Z,13.98
2019-03-06T11:46:45.572Z,14.30
2019-03-06T11:49:24.960Z,14.08
2019-03-06T11:51:55.376Z,14.04
2019-03-06T11:54:26.352Z,14.26
2019-03-06T11:56:56.692Z,14.30
2019-03-06T11:59:30.076Z,14.36
2019-03-06T12:02:00.853Z,13.74
2019-03-06T12:04:36.242Z,12.77
2019-03-06T12:07:31.975Z,13.92
2019-03-06T12:11:03.636Z,13.85
2019-03-06T12:14:16.767Z,14.48
2019-03-06T12:16:52.017Z,14.28
2019-03-06T12:19:43.224Z,14.45
2019-03-06T12:22:13.877Z,13.68
2019-03-06T12:25:38.145Z,13.93
2019-03-06T12:28:19.794Z,14.09
2019-03-06T12:31:14.136Z,12.96
2019-03-06T12:33:44.462Z,13.86
2019-03-06T12:40:24.212Z,14.47
2019-03-06T12:43:44.775Z,14.60
2019-03-06T12:46:23.561Z,14.84
2019-03-06T12:49:35.470Z,14.59
2019-03-06T12:52:13.526Z,14.48
2019-03-06T12:57:40.679Z,14.59
2019-03-06T13:00:26.778Z,15.03
2019-03-06T13:03:18.274Z,14.96
2019-03-06T13:05:59.160Z,14.56
2019-03-06T13:08:30.482Z,14.91
2019-03-06T13:11:25.165Z,15.01
2019-03-06T13:16:56.009Z,14.80
2019-03-06T13:19:54.228Z,15.04
2019-03-06T13:22:48.322Z,15.02
2019-03-06T13:25:32.078Z,15.00
2019-03-06T13:28:07.825Z,15.10
2019-03-06T13:30:41.380Z,15.16
2019-03-06T13:33:27.660Z,15.06
2019-03-06T13:37:09.769Z,15.07
2019-03-06T13:39:46.667Z,15.08
2019-03-06T13:42:23.338Z,15.16
2019-03-06T13:44:53.523Z,15.21
2019-03-06T13:47:27.334Z,14.90
2019-03-06T13:50:02.977Z,15.18
2019-03-06T13:52:43.663Z,15.28
2019-03-06T13:55:26.709Z,15.25
2019-03-06T13:58:00.181Z,15.33
2019-03-06T14:00:30.712Z,15.29
2019-03-06T14:04:04.041Z,15.30
2019-03-06T14:06:37.191Z,14.74
2019-03-06T14:09:11.918Z,15.33
2019-03-06T14:11:54.730Z,15.36
2019-03-06T14:14:25.412Z,14.98
2019-03-06T14:16:57.665Z,15.44
2019-03-06T14:19:47.645Z,15.33
2019-03-06T14:22:18.984Z,15.45
2019-03-06T14:25:16.388Z,15.26
2019-03-06T14:28:48.434Z,15.30
2019-03-06T14:31:20.152Z,15.41
2019-03-06T14:33:53.189Z,15.44
2019-03-06T14:36:24.192Z,15.02
2019-03-06T14:38:58.003Z,15.14
2019-03-06T14:41:29.501Z,15.27
2019-03-06T14:44:54.766Z,15.19
2019-03-06T14:48:37.894Z,15.29
2019-03-06T14:51:09.585Z,15.32
2019-03-06T14:53:41.343Z,15.02
2019-03-06T14:56:34.057Z,14.44
2019-03-06T15:08:59.871Z,14.86
2019-03-06T15:14:08.433Z,14.57
2019-03-06T15:16:39.430Z,15.00
2019-03-06T15:19:13.486Z,14.92
2019-03-06T15:21:46.197Z,14.86
2019-03-06T15:24:20.711Z,15.06
2019-03-06T15:27:10.065Z,14.47
2019-03-06T15:29:49.496Z,13.99
2019-03-06T15:32:26.422Z,14.51
2019-03-06T15:34:57.934Z,14.67
2019-03-06T15:37:36.861Z,14.95
2019-03-06T15:40:19.168Z,14.59
2019-03-06T15:46:46.682Z,14.59
2019-03-06T15:50:52.107Z,14.76
2019-03-06T15:53:24.353Z,14.87
2019-03-06T15:56:23.159Z,14.68
2019-03-06T15:59:26.266Z,14.38
2019-03-06T16:02:41.468Z,14.33
2019-03-06T16:05:21.363Z,14.41
2019-03-06T16:08:01.037Z,14.39
2019-03-06T16:10:41.762Z,14.07
2019-03-06T16:13:12.233Z,13.96
2019-03-06T16:16:01.863Z,14.18
2019-03-06T16:18:34.800Z,13.69
2019-03-06T16:21:43.784Z,14.12
2019-03-06T16:24:14.397Z,13.82
2019-03-06T16:26:48.987Z,13.88
2019-03-06T16:29:25.251Z,14.13
2019-03-06T16:32:13.943Z,12.87
2019-03-06T16:34:43.969Z,13.75
2019-03-06T16:37:39.464Z,13.78
2019-03-06T16:40:19.630Z,13.48
2019-03-06T16:43:14.941Z,13.68
2019-03-06T16:49:03.101Z,13.79
2019-03-06T16:52:27.883Z,13.21
2019-03-06T16:56:00.763Z,13.35
2019-03-06T16:58:50.301Z,13.41
2019-03-06T17:01:28.065Z,13.55
2019-03-06T17:04:50.796Z,13.51
2019-03-06T17:07:22.186Z,13.74
2019-03-06T17:10:21.366Z,13.52
2019-03-06T17:13:05.901Z,13.65
2019-03-06T17:15:36.167Z,13.54
2019-03-06T17:18:36.713Z,13.83
2019-03-06T17:28:14.346Z,13.48
2019-03-06T17:33:52.740Z,13.35
2019-03-06T17:36:27.099Z,13.52
2019-03-06T17:39:03.710Z,13.33
2019-03-06T17:41:34.366Z,13.44
2019-03-06T17:44:04.802Z,13.27
2019-03-06T17:46:42.409Z,13.50
2019-03-06T17:49:15.032Z,13.32
2019-03-06T17:51:46.053Z,13.48
2019-03-06T17:54:30.264Z,12.96
2019-03-06T17:57:08.502Z,13.18
2019-03-06T17:59:39.029Z,13.48
2019-03-06T18:02:09.412Z,12.90
2019-03-06T18:04:49.372Z,13.43
2019-03-06T18:07:19.928Z,13.51
2019-03-06T18:09:50.580Z,13.37
2019-03-06T18:12:21.141Z,13.38
2019-03-06T18:14:53.374Z,13.42
2019-03-06T18:17:29.514Z,13.40
2019-03-06T18:20:02.907Z,12.95
2019-03-06T18:22:37.532Z,12.89
2019-03-06T18:25:14.111Z,13.24
2019-03-06T18:27:44.298Z,13.07
2019-03-06T18:30:28.244Z,13.01
2019-03-06T18:33:17.274Z,12.95
2019-03-06T18:38:50.702Z,13.32
2019-03-06T18:41:42.809Z,13.07
2019-03-06T18:44:30.345Z,12.93
2019-03-06T18:47:44.169Z,13.31
2019-03-06T18:50:45.948Z,13.37
2019-03-06T18:53:18.955Z,13.16
2019-03-06T18:58:44.480Z,12.83
2019-03-06T19:01:16.690Z,13.07
2019-03-06T19:03:47.142Z,13.06
2019-03-06T19:06:22.059Z,13.03
2019-03-06T19:10:01.740Z,13.16
2019-03-06T19:18:14.683Z,13.29
2019-03-06T19:21:22.810Z,13.34
2019-03-06T19:23:53.445Z,13.36
2019-03-06T19:26:24.169Z,13.36
2019-03-06T19:28:55.195Z,13.62
2019-03-06T19:31:56.615Z,13.45
2019-03-06T19:34:44.229Z,13.65
2019-03-06T19:37:47.340Z,13.55
2019-03-06T19:41:02.805Z,13.59
2019-03-06T19:43:33.737Z,13.09
2019-03-06T19:46:05.018Z,13.41
2019-03-06T19:48:56.908Z,13.40
2019-03-06T19:51:26.904Z,13.40
2019-03-06T19:53:59.727Z,13.36
2019-03-06T19:56:30.617Z,13.42
2019-03-06T19:59:34.721Z,13.42
2019-03-06T20:02:08.245Z,13.45
2019-03-06T20:04:42.977Z,13.39
2019-03-06T20:07:48.548Z,13.50
2019-03-06T20:10:23.699Z,13.54
2019-03-06T20:12:54.625Z,13.45
2019-03-06T20:15:29.597Z,13.38
2019-03-06T20:18:19.705Z,13.34
2019-03-06T20:21:39.223Z,13.50
2019-03-06T20:24:24.815Z,13.41
2019-03-06T20:27:14.329Z,13.45
2019-03-06T20:29:47.818Z,13.23
2019-03-06T20:32:18.220Z,13.54
2019-03-06T20:34:48.855Z,13.54
2019-03-06T20:37:22.929Z,13.29
2019-03-06T20:39:54.418Z,13.48
2019-03-06T20:42:28.828Z,13.45
2019-03-06T20:45:00.356Z,13.55
2019-03-06T20:47:37.506Z,13.33
2019-03-06T20:50:08.381Z,13.41
2019-03-06T20:52:39.026Z,13.38
2019-03-06T20:55:15.191Z,13.53
2019-03-06T20:57:45.897Z,13.22
2019-03-06T21:00:21.565Z,12.95
2019-03-06T21:02:51.952Z,13.26
2019-03-06T21:05:22.794Z,13.30
2019-03-06T21:07:54.879Z,13.40
2019-03-06T21:10:25.907Z,13.31
2019-03-06T21:12:56.731Z,13.43
2019-03-06T21:15:26.941Z,13.23
2019-03-06T21:17:57.751Z,13.24
2019-03-06T21:20:30.481Z,13.18
2019-03-06T21:23:06.716Z,13.25
2019-03-06T21:25:40.583Z,13.40
2019-03-06T21:28:11.010Z,13.33
2019-03-06T21:30:41.841Z,13.38
2019-03-06T21:33:17.531Z,13.21
2019-03-06T21:36:10.939Z,13.35
2019-03-06T21:38:44.669Z,13.37
2019-03-06T21:41:40.318Z,13.44
2019-03-06T21:44:08.390Z,13.27
2019-03-06T21:50:11.208Z,13.40
2019-03-06T21:52:43.559Z,13.36
2019-03-06T21:55:25.849Z,13.26
2019-03-06T21:58:02.933Z,13.29
2019-03-06T22:00:33.989Z,13.03
2019-03-06T22:03:08.157Z,13.28
2019-03-06T22:05:42.193Z,13.16
2019-03-06T22:08:28.196Z,13.30
2019-03-06T22:11:08.857Z,13.29
2019-03-06T22:13:40.407Z,13.19
2019-03-06T22:16:12.498Z,13.33
2019-03-06T22:18:45.558Z,13.37
2019-03-06T22:21:18.561Z,13.27
2019-03-06T22:23:48.814Z,13.31
2019-03-06T22:26:25.693Z,13.31
2019-03-06T22:28:56.565Z,13.21
2019-03-06T22:31:26.675Z,13.34
2019-03-06T22:37:33.623Z,13.34
2019-03-06T22:40:24.073Z,13.25
2019-03-06T22:43:14.979Z,13.32
2019-03-06T22:45:45.257Z,13.35
2019-03-06T22:48:25.590Z,13.34
2019-03-06T22:50:56.012Z,13.30
2019-03-06T22:54:11.761Z,13.30
2019-03-06T22:56:42.529Z,13.33
2019-03-06T22:59:22.925Z,13.28
2019-03-06T23:05:03.041Z,13.42
2019-03-06T23:07:34.605Z,13.44
2019-03-06T23:10:05.800Z,13.38
2019-03-06T23:12:36.153Z,13.53
2019-03-06T23:15:06.669Z,13.48
2019-03-06T23:17:36.934Z,13.57
2019-03-06T23:20:07.574Z,13.20
2019-03-06T23:22:37.899Z,13.42
2019-03-06T23:25:08.456Z,13.50
2019-03-06T23:27:39.261Z,13.45
2019-03-06T23:30:14.658Z,13.52
2019-03-06T23:32:44.573Z,13.44
2019-03-06T23:35:15.616Z,13.38
2019-03-06T23:37:46.050Z,13.40
2019-03-06T23:40:17.750Z,13.43
2019-03-06T23:42:48.324Z,13.46
2019-03-06T23:45:18.507Z,13.44
2019-03-06T23:47:49.175Z,13.26
2019-03-06T23:50:19.681Z,13.39
2019-03-06T23:53:14.643Z,13.43
2019-03-06T23:55:44.958Z,13.43
2019-03-06T23:58:15.189Z,13.35
